Time;durP1;ratioP1;P1;durP2;ratioP2;P2;SDS_P1;SDS_P2;PMS_P1;PMS_P2;Temp;Humidity;BMP_temperature;BMP_pressure;BME280_temperature;BME280_humidity;BME280_pressure;Samples;Min_cycle;Max_cycle;Signal;HPM_P1;HPM_P2
2023/03/11 00:02:12;;;;;;;;;;;1.70;99.90;;;;;;5084448;28;19979;-71
2023/03/11 00:04:38;;;;;;;;;;;1.70;99.90;;;;;;5083948;28;20263;-72
2023/03/11 00:07:07;;;;;;;;;;;1.60;99.90;;;;;;5082804;28;19948;-72
2023/03/11 00:09:34;;;;;;;;;;;1.50;99.90;;;;;;5084318;28;19921;-71
2023/03/11 00:12:00;;;;;;;;;;;1.50;99.90;;;;;;5104641;22;19956;-69
2023/03/11 00:14:27;;;;;;;;;;;1.50;99.90;;;;;;5027688;28;19921;-68
2023/03/11 00:16:54;;;;;;;;;;;1.50;99.90;;;;;;5024086;28;19921;-68
2023/03/11 00:19:21;;;;;;;;;;;1.50;99.90;;;;;;5034701;28;20119;-68
2023/03/11 00:21:47;;;;;;;;;;;1.50;99.90;;;;;;5044168;28;19953;-68
2023/03/11 00:24:15;;;;;;;;;;;1.50;99.90;;;;;;5044497;28;20161;-69
2023/03/11 00:26:44;;;;;;;;;;;1.50;99.90;;;;;;5034763;28;20285;-70
2023/03/11 00:29:10;;;;;;;;;;;1.40;99.90;;;;;;5044366;28;19975;-69
2023/03/11 00:31:37;;;;;;;;;;;1.50;99.90;;;;;;5043593;28;19928;-70
2023/03/11 00:34:04;;;;;;;;;;;1.50;99.90;;;;;;5043805;28;20198;-70
2023/03/11 00:36:32;;;;;;;;;;;1.50;99.90;;;;;;5043675;28;19959;-69
2023/03/11 00:38:59;;;;;;;;;;;1.50;99.90;;;;;;5044108;28;19984;-69
2023/03/11 00:41:27;;;;;;;;;;;1.50;99.90;;;;;;5043910;28;20148;-69
2023/03/11 00:43:53;;;;;;;;;;;1.40;99.90;;;;;;5044081;28;19948;-69
2023/03/11 00:46:20;;;;;;;;;;;1.40;99.90;;;;;;5043616;28;19949;-70
2023/03/11 00:48:47;;;;;;;;;;;1.40;99.90;;;;;;5043769;28;19927;-69
2023/03/11 00:51:14;;;;;;;;;;;1.40;99.90;;;;;;5043986;28;19988;-70
2023/03/11 00:53:41;;;;;;;;;;;1.40;99.90;;;;;;5043937;28;19927;-69
2023/03/11 00:56:08;;;;;;;;;;;1.50;99.90;;;;;;5043705;28;19921;-69
2023/03/11 00:58:36;;;;;;;;;;;1.50;99.90;;;;;;5043410;28;19929;-69
2023/03/11 01:01:07;;;;;;;;;;;1.50;99.90;;;;;;5043710;28;19927;-69
2023/03/11 01:03:33;;;;;;;;;;;1.50;99.90;;;;;;5043689;28;19963;-69
2023/03/11 01:06:00;;;;;;;;;;;1.40;99.90;;;;;;5043535;28;20178;-69
2023/03/11 01:08:26;;;;;;;;;;;1.40;99.90;;;;;;5043741;28;19996;-68
2023/03/11 01:10:54;;;;;;;;;;;1.40;99.90;;;;;;5043919;28;19988;-69
2023/03/11 01:13:21;;;;;;;;;;;1.40;99.90;;;;;;5042726;28;19956;-68
2023/03/11 01:15:49;;;;;;;;;;;1.40;99.90;;;;;;5043185;28;19984;-68
2023/03/11 01:18:16;;;;;;;;;;;1.40;99.90;;;;;;5045717;28;19984;-69
2023/03/11 01:20:43;;;;;;;;;;;1.30;99.90;;;;;;5047502;28;19921;-70
2023/03/11 01:23:11;;;;;;;;;;;1.30;99.90;;;;;;5047291;28;20007;-69
2023/03/11 01:25:37;;;;;;;;;;;1.30;99.90;;;;;;5047353;28;19921;-69
2023/03/11 01:28:04;;;;;;;;;;;1.30;99.90;;;;;;5047215;28;20012;-69
2023/03/11 01:30:31;;;;;;;;;;;1.30;99.90;;;;;;5047509;28;19928;-69
2023/03/11 01:32:59;;;;;;;;;;;1.30;99.90;;;;;;5047075;28;19992;-68
2023/03/11 01:35:27;;;;;;;;;;;1.30;99.90;;;;;;5047390;28;19976;-69
2023/03/11 01:37:54;;;;;;;;;;;1.20;99.90;;;;;;5047059;28;19921;-68
2023/03/11 01:40:23;;;;;;;;;;;1.30;99.90;;;;;;5047086;28;20029;-68
2023/03/11 01:42:50;;;;;;;;;;;1.30;99.90;;;;;;5047159;28;19944;-70
2023/03/11 01:45:32;;;;;;;;;;;1.30;99.90;;;;;;5046689;28;19983;-70
2023/03/11 01:48:00;;;;;;;;;;;1.30;99.90;;;;;;5046542;28;19996;-68
2023/03/11 01:50:31;;;;;;;;;;;1.30;99.90;;;;;;5047037;28;19928;-69
2023/03/11 01:52:58;;;;;;;;;;;1.40;99.90;;;;;;5046756;28;19921;-68
2023/03/11 01:55:24;;;;;;;;;;;1.30;99.90;;;;;;5046769;28;19921;-69
2023/03/11 01:57:51;;;;;;;;;;;1.30;99.90;;;;;;5046167;28;19984;-68
2023/03/11 02:00:18;;;;;;;;;;;1.20;99.90;;;;;;5046661;28;19927;-69
2023/03/11 02:02:46;;;;;;;;;;;1.10;99.90;;;;;;5046621;28;19921;-69
2023/03/11 02:05:14;;;;;;;;;;;1.10;99.90;;;;;;5046631;28;20159;-69
2023/03/11 02:07:41;;;;;;;;;;;1.00;99.90;;;;;;5046570;28;19928;-69
2023/03/11 02:10:08;;;;;;;;;;;1.00;99.90;;;;;;5046621;28;19997;-69
2023/03/11 02:12:36;;;;;;;;;;;0.90;99.90;;;;;;5045862;28;19921;-69
2023/03/11 02:15:04;;;;;;;;;;;0.90;99.90;;;;;;5046403;28;19959;-67
2023/03/11 02:17:30;;;;;;;;;;;0.80;99.90;;;;;;5046423;28;19921;-68
2023/03/11 02:20:03;;;;;;;;;;;0.70;99.90;;;;;;5046278;28;20255;-68
2023/03/11 02:22:33;;;;;;;;;;;0.70;99.90;;;;;;5046469;28;19967;-68
2023/03/11 02:25:02;;;;;;;;;;;0.70;99.90;;;;;;5046020;28;19967;-68
2023/03/11 02:27:31;;;;;;;;;;;0.70;99.90;;;;;;5045539;28;19921;-69
2023/03/11 02:29:58;;;;;;;;;;;0.60;99.90;;;;;;5045583;28;19984;-68
2023/03/11 02:32:26;;;;;;;;;;;0.60;99.90;;;;;;5046476;28;19921;-69
2023/03/11 02:34:52;;;;;;;;;;;0.60;99.90;;;;;;5045881;28;19921;-69
2023/03/11 02:37:19;;;;;;;;;;;0.50;99.90;;;;;;5046025;28;19989;-69
2023/03/11 02:39:46;;;;;;;;;;;0.50;99.90;;;;;;5045960;28;19921;-69
2023/03/11 02:42:15;;;;;;;;;;;0.40;99.90;;;;;;5045907;28;19927;-69
2023/03/11 02:44:44;;;;;;;;;;;0.40;99.90;;;;;;5045772;28;19921;-69
2023/03/11 02:47:11;;;;;;;;;;;0.40;99.90;;;;;;5046306;28;19993;-69
2023/03/11 02:49:37;;;;;;;;;;;0.40;99.90;;;;;;5045903;28;19921;-68
2023/03/11 02:52:04;;;;;;;;;;;0.40;99.90;;;;;;5045542;28;19984;-67
2023/03/11 02:54:31;;;;;;;;;;;0.30;99.90;;;;;;5045428;28;19921;-69
2023/03/11 02:56:58;;;;;;;;;;;0.30;99.90;;;;;;5045284;28;19961;-69
2023/03/11 02:59:24;;;;;;;;;;;0.30;99.90;;;;;;5045676;28;19921;-68
2023/03/11 03:01:52;;;;;;;;;;;0.20;99.90;;;;;;5045376;28;20112;-69
2023/03/11 03:04:19;;;;;;;;;;;0.20;99.90;;;;;;5045424;28;19984;-69
2023/03/11 03:06:46;;;;;;;;;;;0.20;99.90;;;;;;5044970;28;19921;-69
2023/03/11 03:09:13;;;;;;;;;;;0.30;99.90;;;;;;5045542;28;19968;-69
2023/03/11 03:11:39;;;;;;;;;;;0.20;99.90;;;;;;5045301;28;20378;-69
2023/03/11 03:14:06;;;;;;;;;;;0.20;99.90;;;;;;5044924;28;19963;-68
2023/03/11 03:16:32;;;;;;;;;;;0.20;99.90;;;;;;5045315;28;19921;-69
2023/03/11 03:19:00;;;;;;;;;;;0.20;99.90;;;;;;5045203;28;20224;-69
2023/03/11 03:21:27;;;;;;;;;;;0.20;99.90;;;;;;5045220;28;19928;-69
2023/03/11 03:23:53;;;;;;;;;;;0.20;99.90;;;;;;5045235;28;19953;-69
2023/03/11 03:26:20;;;;;;;;;;;0.20;99.90;;;;;;5044454;28;20292;-69
2023/03/11 03:28:47;;;;;;;;;;;0.20;99.90;;;;;;5044879;28;19987;-69
2023/03/11 03:31:13;;;;;;;;;;;0.20;99.90;;;;;;5044904;28;20156;-69
2023/03/11 03:33:40;;;;;;;;;;;0.20;99.90;;;;;;5044584;28;19959;-69
2023/03/11 03:36:10;;;;;;;;;;;0.30;99.90;;;;;;5045061;28;19996;-68
2023/03/11 03:38:36;;;;;;;;;;;0.30;99.90;;;;;;5044748;28;19927;-69
2023/03/11 03:41:03;;;;;;;;;;;0.30;99.90;;;;;;5043963;28;20010;-69
2023/03/11 03:43:30;;;;;;;;;;;0.30;99.90;;;;;;5044605;28;20235;-68
2023/03/11 03:45:57;;;;;;;;;;;0.20;99.90;;;;;;5044836;28;20175;-69
2023/03/11 03:48:24;;;;;;;;;;;0.20;99.90;;;;;;5044604;28;19921;-69
2023/03/11 03:50:50;;;;;;;;;;;0.20;99.90;;;;;;5044955;28;19988;-69
2023/03/11 03:53:18;;;;;;;;;;;0.10;99.90;;;;;;5044548;28;20171;-69
2023/03/11 03:55:45;;;;;;;;;;;0.10;99.90;;;;;;5044294;28;20256;-69
2023/03/11 03:58:12;;;;;;;;;;;0.10;99.90;;;;;;5044515;28;19928;-68
2023/03/11 04:00:38;;;;;;;;;;;0.00;99.90;;;;;;5044632;28;19952;-69
2023/03/11 04:03:05;;;;;;;;;;;0.10;99.90;;;;;;5044196;28;19921;-69
2023/03/11 04:05:32;;;;;;;;;;;0.00;99.90;;;;;;5044423;28;20196;-68
2023/03/11 04:07:59;;;;;;;;;;;0.00;99.90;;;;;;5044086;28;19992;-69
2023/03/11 04:10:27;;;;;;;;;;;0.10;99.90;;;;;;5044014;28;19927;-69
2023/03/11 04:12:54;;;;;;;;;;;0.10;99.90;;;;;;5044199;28;19921;-68
2023/03/11 04:15:20;;;;;;;;;;;0.10;99.90;;;;;;5044375;28;19955;-68
2023/03/11 04:17:47;;;;;;;;;;;0.10;99.90;;;;;;5043914;28;20264;-69
2023/03/11 04:20:14;;;;;;;;;;;0.10;99.90;;;;;;5044452;28;19960;-69
2023/03/11 04:22:40;;;;;;;;;;;0.10;99.90;;;;;;5043908;28;19984;-68
2023/03/11 04:25:07;;;;;;;;;;;0.10;99.90;;;;;;5043984;28;19989;-69
2023/03/11 04:27:37;;;;;;;;;;;0.10;99.90;;;;;;5043959;28;19927;-69
2023/03/11 04:30:04;;;;;;;;;;;0.20;99.90;;;;;;5043543;28;19985;-69
2023/03/11 04:32:31;;;;;;;;;;;0.10;99.90;;;;;;5043976;28;19921;-70
2023/03/11 04:34:57;;;;;;;;;;;0.10;99.90;;;;;;5044107;28;19985;-69
2023/03/11 04:37:27;;;;;;;;;;;0.10;99.90;;;;;;5043523;28;19956;-69
2023/03/11 04:39:53;;;;;;;;;;;0.10;99.90;;;;;;5044086;28;20111;-68
2023/03/11 04:42:20;;;;;;;;;;;0.10;99.90;;;;;;5043632;28;19921;-68
2023/03/11 04:44:48;;;;;;;;;;;0.10;99.90;;;;;;5043892;28;19920;-68
2023/03/11 04:47:15;;;;;;;;;;;0.20;99.90;;;;;;5043493;28;20232;-68
2023/03/11 04:49:42;;;;;;;;;;;0.20;99.90;;;;;;5043776;28;20216;-68
2023/03/11 04:52:08;;;;;;;;;;;0.20;99.90;;;;;;5044395;28;19984;-68
2023/03/11 04:54:35;;;;;;;;;;;0.30;99.90;;;;;;5048167;28;19963;-69
2023/03/11 04:57:01;;;;;;;;;;;0.20;99.90;;;;;;5047659;28;20264;-68
2023/03/11 04:59:28;;;;;;;;;;;0.20;99.90;;;;;;5047844;28;19956;-68
2023/03/11 05:01:56;;;;;;;;;;;0.20;99.90;;;;;;5047746;28;19921;-69
2023/03/11 05:04:23;;;;;;;;;;;0.20;99.90;;;;;;5048027;28;19929;-69
2023/03/11 05:06:50;;;;;;;;;;;0.20;99.90;;;;;;5043908;28;19928;-68
2023/03/11 05:09:17;;;;;;;;;;;0.20;99.90;;;;;;5047058;28;20209;-69
2023/03/11 05:11:44;;;;;;;;;;;0.20;99.90;;;;;;5047531;28;19952;-68
2023/03/11 05:14:10;;;;;;;;;;;0.20;99.90;;;;;;5047588;28;19960;-69
2023/03/11 05:16:37;;;;;;;;;;;0.20;99.90;;;;;;5047436;28;19921;-69
2023/03/11 05:19:29;;;;;;;;;;;0.20;99.90;;;;;;5047626;28;19988;-68
2023/03/11 05:21:52;;;;;;;;;;;0.20;99.90;;;;;;5045633;28;19959;-69
2023/03/11 05:24:18;;;;;;;;;;;0.10;99.90;;;;;;5047481;28;19928;-69
2023/03/11 05:26:45;;;;;;;;;;;0.10;99.90;;;;;;5047254;28;19972;-70
2023/03/11 05:29:12;;;;;;;;;;;0.10;99.90;;;;;;5047495;28;19921;-70
2023/03/11 05:31:38;;;;;;;;;;;0.10;99.90;;;;;;5047632;28;19984;-70
2023/03/11 05:34:06;;;;;;;;;;;0.10;99.90;;;;;;5047013;28;19980;-68
2023/03/11 05:36:33;;;;;;;;;;;0.00;99.90;;;;;;5046948;28;20116;-67
2023/03/11 05:38:59;;;;;;;;;;;0.00;99.90;;;;;;5047422;28;19984;-69
2023/03/11 05:41:26;;;;;;;;;;;0.00;99.90;;;;;;5047271;28;19984;-68
2023/03/11 05:43:53;;;;;;;;;;;0.00;99.90;;;;;;5046802;28;19967;-68
2023/03/11 05:46:22;;;;;;;;;;;0.00;99.90;;;;;;5045787;28;19984;-69
2023/03/11 05:48:49;;;;;;;;;;;0.00;99.90;;;;;;5046521;28;19921;-69
2023/03/11 05:51:17;;;;;;;;;;;0.00;99.90;;;;;;5027158;28;19992;-71
2023/03/11 05:53:47;;;;;;;;;;;0.00;99.90;;;;;;5027092;28;19984;-69
2023/03/11 05:56:13;;;;;;;;;;;0.00;99.90;;;;;;5026925;28;19957;-69
2023/03/11 05:58:40;;;;;;;;;;;0.00;99.90;;;;;;5039499;28;19921;-68
2023/03/11 06:01:07;;;;;;;;;;;-0.10;99.90;;;;;;5035802;28;19923;-69
2023/03/11 06:03:34;;;;;;;;;;;0.00;99.90;;;;;;5032647;28;19953;-69
2023/03/11 06:06:01;;;;;;;;;;;0.00;99.90;;;;;;5046443;28;19980;-69
2023/03/11 06:08:29;;;;;;;;;;;0.00;99.90;;;;;;5046209;28;19963;-72
2023/03/11 06:11:00;;;;;;;;;;;0.00;99.90;;;;;;5046609;28;19921;-67
2023/03/11 06:13:27;;;;;;;;;;;0.00;99.90;;;;;;5046186;28;20227;-68
2023/03/11 06:15:53;;;;;;;;;;;0.00;99.90;;;;;;5046043;28;19988;-68
2023/03/11 06:18:20;;;;;;;;;;;-0.10;99.90;;;;;;5046432;28;19953;-69
2023/03/11 06:20:47;;;;;;;;;;;-0.10;99.90;;;;;;5045253;28;20180;-69
2023/03/11 06:23:13;;;;;;;;;;;-0.10;99.90;;;;;;5045616;28;19927;-68
2023/03/11 06:25:41;;;;;;;;;;;0.00;99.90;;;;;;5045697;28;19984;-68
2023/03/11 06:28:11;;;;;;;;;;;0.00;99.90;;;;;;5039899;28;19921;-68
2023/03/11 06:30:40;;;;;;;;;;;0.00;99.90;;;;;;5044888;28;19921;-68
2023/03/11 06:33:06;;;;;;;;;;;0.00;99.90;;;;;;5045708;28;19947;-69
2023/03/11 06:35:33;;;;;;;;;;;0.00;99.90;;;;;;5045985;28;19952;-68
2023/03/11 06:38:00;;;;;;;;;;;0.00;99.90;;;;;;5045550;28;20019;-68
2023/03/11 06:40:27;;;;;;;;;;;0.00;99.90;;;;;;5039990;28;19959;-69
2023/03/11 06:42:54;;;;;;;;;;;0.00;99.90;;;;;;5037100;28;19921;-69
2023/03/11 06:45:28;;;;;;;;;;;0.00;99.90;;;;;;5045716;28;19927;-69
2023/03/11 06:47:54;;;;;;;;;;;0.10;99.90;;;;;;5041795;28;19953;-69
2023/03/11 06:50:22;;;;;;;;;;;0.10;99.90;;;;;;5025752;28;20157;-69
2023/03/11 06:52:49;;;;;;;;;;;0.10;99.90;;;;;;5026024;28;19968;-69
2023/03/11 06:55:16;;;;;;;;;;;0.10;99.90;;;;;;5041736;28;19921;-71
2023/03/11 06:57:43;;;;;;;;;;;0.20;99.90;;;;;;5045760;28;19987;-69
2023/03/11 07:00:12;;;;;;;;;;;0.10;99.90;;;;;;5045980;28;19928;-69
2023/03/11 07:02:39;;;;;;;;;;;0.10;99.90;;;;;;5045616;28;19960;-69
2023/03/11 07:05:06;;;;;;;;;;;0.10;99.90;;;;;;5045092;28;20049;-69
2023/03/11 07:07:32;;;;;;;;;;;0.20;99.90;;;;;;5045388;28;19943;-70
2023/03/11 07:09:59;;;;;;;;;;;0.10;99.90;;;;;;5035831;28;20177;-69
2023/03/11 07:12:26;;;;;;;;;;;0.20;99.90;;;;;;5039861;28;19949;-70
2023/03/11 07:14:54;;;;;;;;;;;0.20;99.90;;;;;;5025128;28;19921;-69
2023/03/11 07:17:22;;;;;;;;;;;0.20;99.90;;;;;;5025079;28;20124;-69
2023/03/11 07:19:49;;;;;;;;;;;0.30;99.90;;;;;;5025304;28;20001;-69
2023/03/11 07:22:15;;;;;;;;;;;0.30;99.90;;;;;;5025766;28;19957;-69
2023/03/11 07:24:44;;;;;;;;;;;0.20;99.90;;;;;;5030525;28;19984;-69
2023/03/11 07:27:11;;;;;;;;;;;0.30;99.90;;;;;;5044869;28;19952;-71
2023/03/11 07:29:37;;;;;;;;;;;0.30;99.90;;;;;;5044979;28;19967;-69
2023/03/11 07:32:06;;;;;;;;;;;0.30;99.90;;;;;;5037135;28;19952;-70
2023/03/11 07:34:34;;;;;;;;;;;0.30;99.90;;;;;;5024927;28;19984;-69
2023/03/11 07:37:00;;;;;;;;;;;0.40;99.90;;;;;;5034750;28;19980;-69
2023/03/11 07:39:27;;;;;;;;;;;0.30;99.90;;;;;;5033049;28;19952;-69
2023/03/11 07:41:54;;;;;;;;;;;0.40;99.90;;;;;;5027695;28;19989;-69
2023/03/11 07:44:21;;;;;;;;;;;0.40;99.90;;;;;;5025034;28;19941;-69
2023/03/11 07:46:47;;;;;;;;;;;0.40;99.90;;;;;;5024400;28;19952;-69
2023/03/11 07:49:14;;;;;;;;;;;0.40;99.90;;;;;;5037301;28;19921;-69
2023/03/11 07:51:42;;;;;;;;;;;0.40;99.90;;;;;;5044672;28;19957;-69
2023/03/11 07:54:10;;;;;;;;;;;0.40;99.90;;;;;;5044737;28;20279;-69
2023/03/11 07:56:37;;;;;;;;;;;0.50;99.90;;;;;;5044205;28;20234;-69
2023/03/11 07:59:04;;;;;;;;;;;0.50;99.90;;;;;;5044314;28;19928;-69
2023/03/11 08:01:35;;;;;;;;;;;0.50;99.90;;;;;;5044333;28;19921;-70
2023/03/11 08:04:02;;;;;;;;;;;0.40;99.90;;;;;;5029047;28;20312;-70
2023/03/11 08:06:30;;;;;;;;;;;0.40;99.90;;;;;;5044268;28;19988;-70
2023/03/11 08:08:58;;;;;;;;;;;0.40;99.90;;;;;;5044383;28;19922;-69
2023/03/11 08:11:25;;;;;;;;;;;0.50;99.90;;;;;;5044522;28;19928;-71
2023/03/11 08:13:52;;;;;;;;;;;0.50;99.90;;;;;;5043766;28;19984;-69
2023/03/11 08:16:20;;;;;;;;;;;0.60;99.90;;;;;;5043456;28;20217;-70
2023/03/11 08:18:47;;;;;;;;;;;0.50;99.90;;;;;;5044402;28;19944;-70
2023/03/11 08:21:15;;;;;;;;;;;0.50;99.90;;;;;;5044300;28;19921;-70
2023/03/11 08:23:42;;;;;;;;;;;0.50;99.90;;;;;;5044290;28;19952;-69
2023/03/11 08:26:11;;;;;;;;;;;0.60;99.90;;;;;;5043637;28;19963;-68
2023/03/11 08:28:38;;;;;;;;;;;0.50;99.90;;;;;;5043354;28;19921;-68
2023/03/11 08:31:12;;;;;;;;;;;0.60;99.90;;;;;;5043630;28;19927;-69
2023/03/11 08:33:38;;;;;;;;;;;0.60;99.90;;;;;;5044168;28;19921;-69
2023/03/11 08:36:05;;;;;;;;;;;0.70;99.90;;;;;;5043712;28;19934;-69
2023/03/11 08:38:32;;;;;;;;;;;0.70;99.90;;;;;;5044079;28;20157;-69
2023/03/11 08:40:59;;;;;;;;;;;0.70;99.90;;;;;;5043851;28;19984;-68
2023/03/11 08:43:28;;;;;;;;;;;0.80;99.90;;;;;;5043711;28;19921;-69
2023/03/11 08:45:54;;;;;;;;;;;0.80;99.90;;;;;;5035563;28;19952;-68
2023/03/11 08:48:22;;;;;;;;;;;0.90;99.90;;;;;;5043619;28;19921;-68
2023/03/11 08:50:49;;;;;;;;;;;1.00;99.90;;;;;;5033828;28;19997;-69
2023/03/11 08:53:15;;;;;;;;;;;1.00;99.90;;;;;;5024165;28;19921;-69
2023/03/11 08:55:42;;;;;;;;;;;1.10;99.90;;;;;;5037529;28;20008;-69
2023/03/11 08:58:08;;;;;;;;;;;1.10;99.90;;;;;;5043345;28;19948;-69
2023/03/11 09:00:36;;;;;;;;;;;1.20;99.90;;;;;;5043523;28;19928;-68
2023/03/11 09:03:03;;;;;;;;;;;1.30;99.90;;;;;;5043540;28;19943;-69
2023/03/11 09:05:30;;;;;;;;;;;1.30;99.90;;;;;;5038645;28;19992;-68
2023/03/11 09:07:56;;;;;;;;;;;1.40;99.90;;;;;;5031926;28;19952;-69
2023/03/11 09:10:23;;;;;;;;;;;1.50;99.90;;;;;;5029438;28;19960;-69
2023/03/11 09:12:50;;;;;;;;;;;1.50;99.90;;;;;;5025445;28;20094;-74
2023/03/11 09:15:16;;;;;;;;;;;1.50;99.90;;;;;;5043611;28;19988;-69
2023/03/11 09:17:44;;;;;;;;;;;1.50;99.90;;;;;;5043301;28;19945;-67
2023/03/11 09:20:12;;;;;;;;;;;1.40;99.90;;;;;;5029178;28;19985;-68
2023/03/11 09:22:39;;;;;;;;;;;1.40;99.90;;;;;;5023606;28;19922;-68
2023/03/11 09:25:06;;;;;;;;;;;1.40;99.90;;;;;;5023364;28;19957;-68
2023/03/11 09:27:32;;;;;;;;;;;1.40;99.90;;;;;;5023322;28;19922;-69
2023/03/11 09:29:59;;;;;;;;;;;1.40;99.90;;;;;;5023283;28;19960;-68
2023/03/11 09:32:26;;;;;;;;;;;1.50;99.90;;;;;;5022843;28;19933;-69
2023/03/11 09:34:54;;;;;;;;;;;1.60;99.90;;;;;;5026266;28;20162;-69
2023/03/11 09:37:20;;;;;;;;;;;1.60;99.90;;;;;;5042770;28;20258;-69
2023/03/11 09:39:47;;;;;;;;;;;1.60;99.90;;;;;;5046635;28;19956;-69
2023/03/11 09:42:19;;;;;;;;;;;1.60;99.90;;;;;;5047185;28;19957;-68
2023/03/11 09:44:49;;;;;;;;;;;1.50;99.90;;;;;;5047151;28;20191;-70
2023/03/11 09:47:21;;;;;;;;;;;1.60;99.90;;;;;;5047053;28;19928;-69
2023/03/11 09:49:54;;;;;;;;;;;1.70;99.90;;;;;;5046753;28;20208;-69
2023/03/11 09:52:25;;;;;;;;;;;1.80;99.90;;;;;;5046967;28;20093;-69
2023/03/11 09:54:53;;;;;;;;;;;1.80;99.90;;;;;;5046847;28;20093;-68
2023/03/11 09:57:22;;;;;;;;;;;1.90;99.90;;;;;;5046455;28;19921;-68
2023/03/11 09:59:49;;;;;;;;;;;2.00;99.90;;;;;;5046497;28;19980;-68
2023/03/11 10:02:18;;;;;;;;;;;2.10;99.90;;;;;;5046599;28;19921;-68
2023/03/11 10:04:49;;;;;;;;;;;2.20;99.90;;;;;;5046622;28;19988;-69
2023/03/11 10:07:20;;;;;;;;;;;2.10;99.90;;;;;;5046452;28;19927;-68
2023/03/11 10:09:50;;;;;;;;;;;2.10;99.90;;;;;;5046466;28;19952;-69
2023/03/11 10:12:25;;;;;;;;;;;2.00;99.90;;;;;;5046079;28;20350;-68
2023/03/11 10:14:57;;;;;;;;;;;2.00;99.90;;;;;;5046631;28;19988;-68
2023/03/11 10:17:34;;;;;;;;;;;2.00;99.90;;;;;;5046211;28;19992;-68
2023/03/11 10:20:04;;;;;;;;;;;1.90;99.90;;;;;;5046631;28;19984;-68
2023/03/11 10:22:35;;;;;;;;;;;1.90;99.90;;;;;;5046237;28;19983;-68
2023/03/11 10:25:09;;;;;;;;;;;1.80;99.90;;;;;;5046457;28;19936;-69
2023/03/11 10:27:40;;;;;;;;;;;1.70;99.90;;;;;;5045805;28;19927;-71
2023/03/11 10:30:13;;;;;;;;;;;1.80;99.90;;;;;;5046242;28;20234;-69
2023/03/11 10:32:42;;;;;;;;;;;1.80;99.90;;;;;;5046213;28;19928;-69
2023/03/11 10:35:16;;;;;;;;;;;1.80;99.90;;;;;;5046461;28;19944;-69
2023/03/11 10:37:59;;;;;;;;;;;1.90;99.90;;;;;;5045685;28;19957;-69
2023/03/11 10:40:31;;;;;;;;;;;1.90;99.90;;;;;;5042441;28;19928;-69
2023/03/11 10:42:59;;;;;;;;;;;2.00;99.90;;;;;;5026514;28;19921;-69
2023/03/11 10:45:27;;;;;;;;;;;2.20;99.90;;;;;;5026009;28;19984;-69
2023/03/11 10:47:55;;;;;;;;;;;2.50;99.90;;;;;;5029100;28;19921;-70
2023/03/11 10:50:25;;;;;;;;;;;2.60;99.90;;;;;;5044831;28;19968;-69
2023/03/11 10:53:06;;;;;;;;;;;2.70;99.90;;;;;;5045977;28;19993;-68
2023/03/11 10:55:34;;;;;;;;;;;2.70;99.90;;;;;;5046048;28;20112;-69
2023/03/11 10:58:06;;;;;;;;;;;2.70;99.90;;;;;;5037349;28;20239;-69
2023/03/11 11:00:32;;;;;;;;;;;2.60;99.90;;;;;;5025858;28;19992;-69
2023/03/11 11:03:00;;;;;;;;;;;2.60;99.90;;;;;;5025961;28;19928;-69
2023/03/11 11:05:29;;;;;;;;;;;2.50;99.90;;;;;;5025950;28;19960;-69
2023/03/11 11:08:02;;;;;;;;;;;2.30;99.90;;;;;;5025662;28;19984;-69
2023/03/11 11:10:29;;;;;;;;;;;2.30;99.90;;;;;;5028482;28;20120;-70
2023/03/11 11:12:58;;;;;;;;;;;2.30;99.90;;;;;;5045362;28;19921;-68
2023/03/11 11:15:26;;;;;;;;;;;2.30;99.90;;;;;;5045268;28;19921;-69
2023/03/11 11:17:54;;;;;;;;;;;2.30;99.90;;;;;;5025802;28;20199;-69
2023/03/11 11:20:21;;;;;;;;;;;2.40;99.90;;;;;;5025389;28;19921;-68
2023/03/11 11:22:50;;;;;;;;;;;2.50;99.90;;;;;;5035959;28;19953;-68
2023/03/11 11:25:27;;;;;;;;;;;2.60;99.90;;;;;;5045129;28;19928;-67
2023/03/11 11:27:54;;;;;;;;;;;2.70;99.90;;;;;;5044958;28;19949;-68
2023/03/11 11:30:23;;;;;;;;;;;2.70;99.90;;;;;;5044909;28;19996;-68
2023/03/11 11:32:52;;;;;;;;;;;2.70;99.90;;;;;;5044965;28;20252;-67
2023/03/11 11:35:20;;;;;;;;;;;2.80;99.90;;;;;;5039214;28;19921;-68
2023/03/11 11:37:47;;;;;;;;;;;2.90;99.90;;;;;;5034106;28;19921;-68
2023/03/11 11:40:18;;;;;;;;;;;2.90;99.90;;;;;;5044709;28;19984;-67
2023/03/11 11:42:46;;;;;;;;;;;2.80;99.90;;;;;;5044990;28;19988;-68
2023/03/11 11:45:15;;;;;;;;;;;2.80;99.90;;;;;;5044287;28;20116;-68
2023/03/11 11:47:47;;;;;;;;;;;2.80;99.90;;;;;;5044196;28;19943;-68
2023/03/11 11:50:16;;;;;;;;;;;2.70;99.90;;;;;;5044523;28;19928;-68
2023/03/11 11:52:44;;;;;;;;;;;2.70;99.90;;;;;;5033365;28;19984;-68
2023/03/11 11:55:17;;;;;;;;;;;2.70;99.90;;;;;;5042270;28;19921;-67
2023/03/11 11:57:43;;;;;;;;;;;2.70;99.90;;;;;;5044270;28;20112;-68
2023/03/11 12:00:17;;;;;;;;;;;2.60;99.90;;;;;;5044049;28;19992;-69
2023/03/11 12:02:52;;;;;;;;;;;2.70;99.90;;;;;;5022721;28;19964;-69
2023/03/11 12:05:22;;;;;;;;;;;2.70;99.90;;;;;;5033122;28;19921;-68
2023/03/11 12:07:56;;;;;;;;;;;2.70;99.90;;;;;;5032246;28;19981;-69
2023/03/11 12:10:26;;;;;;;;;;;2.70;99.90;;;;;;5041307;28;19930;-68
2023/03/11 12:13:13;;;;;;;;;;;2.70;99.90;;;;;;5024373;28;19984;-69
2023/03/11 12:15:41;;;;;;;;;;;2.70;99.90;;;;;;5020458;28;19922;-68
2023/03/11 12:18:11;;;;;;;;;;;2.60;99.90;;;;;;5024249;28;19948;-68
2023/03/11 12:20:39;;;;;;;;;;;2.70;99.90;;;;;;5024319;28;19988;-68
2023/03/11 12:23:19;;;;;;;;;;;2.60;99.90;;;;;;5024340;28;19984;-68
2023/03/11 12:26:03;;;;;;;;;;;2.60;99.90;;;;;;5032727;28;20116;-68
2023/03/11 12:28:37;;;;;;;;;;;2.70;99.90;;;;;;5040366;28;19987;-68
2023/03/11 12:31:07;;;;;;;;;;;2.70;99.90;;;;;;5033635;28;19928;-69
2023/03/11 12:33:37;;;;;;;;;;;2.70;99.90;;;;;;5024287;28;19921;-69
2023/03/11 12:36:04;;;;;;;;;;;2.70;99.90;;;;;;5023955;28;19922;-69
2023/03/11 12:38:32;;;;;;;;;;;2.70;99.90;;;;;;5024050;28;20149;-68
2023/03/11 12:41:03;;;;;;;;;;;2.70;99.90;;;;;;5024078;28;19921;-69
2023/03/11 12:43:48;;;;;;;;;;;2.70;99.90;;;;;;5023560;28;20116;-68
2023/03/11 12:46:16;;;;;;;;;;;2.70;99.90;;;;;;5023651;28;19928;-68
2023/03/11 12:48:45;;;;;;;;;;;2.70;99.90;;;;;;5023767;28;19921;-68
2023/03/11 12:51:38;;;;;;;;;;;2.70;99.90;;;;;;5038870;28;19932;-68
2023/03/11 12:54:21;;;;;;;;;;;2.60;99.90;;;;;;5043634;28;20271;-69
2023/03/11 12:56:53;;;;;;;;;;;2.60;99.90;;;;;;5042572;28;19921;-68
2023/03/11 12:59:35;;;;;;;;;;;2.60;99.90;;;;;;5023862;28;19980;-69
2023/03/11 13:02:05;;;;;;;;;;;2.60;99.90;;;;;;5039944;28;19964;-68
2023/03/11 13:04:48;;;;;;;;;;;2.70;99.90;;;;;;5024006;28;20106;-70
2023/03/11 13:07:33;;;;;;;;;;;2.70;99.90;;;;;;5023184;28;20244;-68
2023/03/11 13:10:10;;;;;;;;;;;2.60;99.90;;;;;;5033985;28;19921;-69
2023/03/11 13:12:41;;;;;;;;;;;2.60;99.90;;;;;;5024727;28;20151;-70
2023/03/11 13:15:29;;;;;;;;;;;2.60;99.90;;;;;;5042337;28;19984;-68
2023/03/11 13:17:58;;;;;;;;;;;2.70;99.90;;;;;;5046939;28;20200;-68
2023/03/11 13:20:47;;;;;;;;;;;2.70;99.90;;;;;;5047494;28;19982;-69
2023/03/11 13:23:26;;;;;;;;;;;2.80;99.90;;;;;;5044187;28;19984;-68
2023/03/11 13:26:16;;;;;;;;;;;2.90;99.90;;;;;;5047220;28;19921;-68
2023/03/11 13:28:51;;;;;;;;;;;3.10;99.90;;;;;;5047102;28;20163;-69
2023/03/11 13:31:33;;;;;;;;;;;3.10;99.90;;;;;;5047599;28;19935;-68
2023/03/11 13:34:03;;;;;;;;;;;3.10;99.90;;;;;;5047087;28;20235;-68
2023/03/11 13:36:42;;;;;;;;;;;3.10;99.90;;;;;;5046494;28;19929;-68
2023/03/11 13:39:27;;;;;;;;;;;3.10;99.90;;;;;;5047244;28;20294;-68
2023/03/11 13:41:54;;;;;;;;;;;3.00;99.90;;;;;;5047262;28;19926;-68
2023/03/11 13:44:25;;;;;;;;;;;3.00;99.90;;;;;;5047040;28;19984;-68
2023/03/11 13:46:53;;;;;;;;;;;3.00;99.90;;;;;;5046411;28;19925;-68
2023/03/11 13:49:32;;;;;;;;;;;3.10;99.90;;;;;;5046598;28;19988;-68
2023/03/11 13:52:01;;;;;;;;;;;3.30;99.90;;;;;;5046472;28;20224;-68
2023/03/11 13:54:45;;;;;;;;;;;3.30;99.90;;;;;;5046572;28;19921;-68
2023/03/11 13:57:20;;;;;;;;;;;3.30;99.90;;;;;;5045835;28;20234;-68
2023/03/11 13:59:51;;;;;;;;;;;3.30;99.90;;;;;;5047006;28;19927;-67
2023/03/11 14:02:18;;;;;;;;;;;3.30;99.90;;;;;;5046750;28;20132;-68
2023/03/11 14:04:47;;;;;;;;;;;3.30;99.90;;;;;;5046601;28;19921;-68
2023/03/11 14:07:20;;;;;;;;;;;3.50;99.90;;;;;;5045700;28;19927;-68
2023/03/11 14:09:46;;;;;;;;;;;3.70;99.90;;;;;;5046700;28;20260;-69
2023/03/11 14:12:13;;;;;;;;;;;3.70;99.90;;;;;;5046392;28;19921;-68
2023/03/11 14:14:46;;;;;;;;;;;3.70;99.90;;;;;;5046468;28;19921;-69
2023/03/11 14:17:14;;;;;;;;;;;3.70;99.90;;;;;;5045310;28;19944;-67
2023/03/11 14:19:41;;;;;;;;;;;3.70;99.90;;;;;;5045562;28;19921;-71
2023/03/11 14:22:08;;;;;;;;;;;3.70;99.90;;;;;;5045768;28;20018;-68
2023/03/11 14:24:37;;;;;;;;;;;3.80;99.90;;;;;;5041850;28;19944;-67
2023/03/11 14:27:08;;;;;;;;;;;3.70;99.90;;;;;;5045230;28;19921;-68
2023/03/11 14:29:35;;;;;;;;;;;3.70;99.90;;;;;;5046016;28;19928;-68
2023/03/11 14:32:16;;;;;;;;;;;3.60;99.90;;;;;;5036451;28;20012;-68
2023/03/11 14:34:44;;;;;;;;;;;3.70;99.90;;;;;;5036950;28;20209;-68
2023/03/11 14:37:23;;;;;;;;;;;3.70;99.90;;;;;;5042502;28;20219;-69
2023/03/11 14:39:51;;;;;;;;;;;3.80;99.90;;;;;;5045635;28;19984;-68
2023/03/11 14:42:21;;;;;;;;;;;3.70;99.90;;;;;;5028795;28;19948;-69